createdAt,value
2019-01-25T00:01:41.708Z,-2.45
2019-01-25T00:04:16.203Z,-2.43
2019-01-25T00:06:50.767Z,-2.40
2019-01-25T00:09:24.463Z,-2.40
2019-01-25T00:11:57.847Z,-2.40
2019-01-25T00:14:30.842Z,-2.40
2019-01-25T00:17:04.135Z,-2.40
2019-01-25T00:19:40.424Z,-2.39
2019-01-25T00:22:13.482Z,-2.39
2019-01-25T00:24:46.518Z,-2.37
2019-01-25T00:27:20.832Z,-2.36
2019-01-25T00:29:53.826Z,-2.34
2019-01-25T00:32:28.836Z,-2.33
2019-01-25T00:35:02.340Z,-2.31
2019-01-25T00:37:36.081Z,-2.33
2019-01-25T00:40:12.689Z,-2.35
2019-01-25T00:42:45.984Z,-2.36
2019-01-25T00:45:20.033Z,-2.36
2019-01-25T00:47:52.945Z,-2.35
2019-01-25T00:50:25.986Z,-2.34
2019-01-25T00:52:59.333Z,-2.32
2019-01-25T00:55:32.492Z,-2.33
2019-01-25T00:58:06.131Z,-2.34
2019-01-25T01:00:39.399Z,-2.32
2019-01-25T01:03:12.346Z,-2.33
2019-01-25T01:05:47.176Z,-2.34
2019-01-25T01:08:20.511Z,-2.35
2019-01-25T01:10:53.454Z,-2.35
2019-01-25T01:13:26.369Z,-2.35
2019-01-25T01:15:59.911Z,-2.34
2019-01-25T01:18:33.427Z,-2.32
2019-01-25T01:21:06.449Z,-2.29
2019-01-25T01:23:39.991Z,-2.28
2019-01-25T01:26:14.483Z,-2.27
2019-01-25T01:28:47.261Z,-2.27
2019-01-25T01:31:21.544Z,-2.25
2019-01-25T01:33:55.122Z,-2.26
2019-01-25T01:36:29.048Z,-2.26
2019-01-25T01:39:05.211Z,-2.27
2019-01-25T01:41:38.175Z,-2.29
2019-01-25T01:44:11.126Z,-2.30
2019-01-25T01:46:44.532Z,-2.29
2019-01-25T01:49:17.332Z,-2.27
2019-01-25T01:51:51.224Z,-2.24
2019-01-25T01:54:24.815Z,-2.22
2019-01-25T01:56:57.672Z,-2.21
2019-01-25T01:59:31.252Z,-2.21
2019-01-25T02:02:04.949Z,-2.22
2019-01-25T02:04:37.959Z,-2.23
2019-01-25T02:07:10.947Z,-2.26
2019-01-25T02:09:44.299Z,-2.29
2019-01-25T02:12:17.519Z,-2.29
2019-01-25T02:14:50.476Z,-2.27
2019-01-25T02:17:23.941Z,-2.26
2019-01-25T02:19:57.730Z,-2.25
2019-01-25T02:22:30.679Z,-2.23
2019-01-25T02:25:04.844Z,-2.24
2019-01-25T02:27:40.410Z,-2.23
2019-01-25T02:30:19.785Z,-2.23
2019-01-25T02:32:54.032Z,-2.23
2019-01-25T02:35:26.851Z,-2.23
2019-01-25T02:38:01.280Z,-2.22
2019-01-25T02:40:39.186Z,-2.21
2019-01-25T02:43:13.875Z,-2.17
2019-01-25T02:45:48.072Z,-2.14
2019-01-25T02:48:20.916Z,-2.12
2019-01-25T02:50:53.755Z,-2.08
2019-01-25T02:53:28.375Z,-2.09
2019-01-25T02:56:01.475Z,-2.05
2019-01-25T02:58:37.915Z,-2.04
2019-01-25T03:01:11.655Z,-2.04
2019-01-25T03:03:44.806Z,-2.07
2019-01-25T03:06:17.923Z,-2.05
2019-01-25T03:08:51.362Z,-2.04
2019-01-25T03:11:24.288Z,-2.03
2019-01-25T03:13:57.328Z,-2.04
2019-01-25T03:16:30.665Z,-2.07
2019-01-25T03:19:04.187Z,-2.09
2019-01-25T03:21:37.055Z,-2.11
2019-01-25T03:24:11.504Z,-2.11
2019-01-25T03:26:44.289Z,-2.12
2019-01-25T03:29:17.561Z,-2.13
2019-01-25T03:31:51.874Z,-2.13
2019-01-25T03:34:24.935Z,-2.13
2019-01-25T03:36:58.800Z,-2.10
2019-01-25T03:39:36.037Z,-2.09
2019-01-25T03:42:08.986Z,-2.07
2019-01-25T03:44:46.634Z,-2.05
2019-01-25T03:47:23.456Z,-2.06
2019-01-25T03:49:56.347Z,-2.07
2019-01-25T03:52:29.875Z,-2.08
2019-01-25T03:55:02.907Z,-2.10
2019-01-25T03:57:36.291Z,-2.13
2019-01-25T04:00:16.555Z,-2.14
2019-01-25T04:02:51.798Z,-2.13
2019-01-25T04:05:26.326Z,-2.13
2019-01-25T04:07:59.719Z,-2.11
2019-01-25T04:10:32.831Z,-2.11
2019-01-25T04:13:06.555Z,-2.11
2019-01-25T04:15:40.563Z,-2.11
2019-01-25T04:18:13.461Z,-2.10
2019-01-25T04:20:46.511Z,-2.11
2019-01-25T04:23:19.900Z,-2.07
2019-01-25T04:25:53.954Z,-2.05
2019-01-25T04:28:26.767Z,-2.08
2019-01-25T04:31:02.578Z,-2.09
2019-01-25T04:33:35.572Z,-2.10
2019-01-25T04:36:08.734Z,-2.09
2019-01-25T04:38:42.116Z,-2.09
2019-01-25T04:41:15.074Z,-2.08
2019-01-25T04:43:49.684Z,-2.07
2019-01-25T04:46:23.531Z,-2.07
2019-01-25T04:48:57.053Z,-2.09
2019-01-25T04:51:30.593Z,-2.09
2019-01-25T04:54:04.096Z,-2.08
2019-01-25T04:56:39.934Z,-2.08
2019-01-25T04:59:12.743Z,-2.05
2019-01-25T05:01:46.144Z,-2.00
2019-01-25T05:04:18.920Z,-1.97
2019-01-25T05:06:52.003Z,-1.90
2019-01-25T05:09:26.859Z,-1.89
2019-01-25T05:12:05.125Z,-1.90
2019-01-25T05:14:38.464Z,-1.90
2019-01-25T05:17:11.867Z,-1.86
2019-01-25T05:19:46.289Z,-1.84
2019-01-25T05:22:19.446Z,-1.83
2019-01-25T05:24:52.860Z,-1.85
2019-01-25T05:27:25.880Z,-1.84
2019-01-25T05:29:59.057Z,-1.83
2019-01-25T05:32:33.420Z,-1.80
2019-01-25T05:35:06.287Z,-1.79
2019-01-25T05:37:39.494Z,-1.76
2019-01-25T05:40:20.601Z,-1.74
2019-01-25T05:42:57.409Z,-1.71
2019-01-25T05:45:30.880Z,-1.71
2019-01-25T05:48:06.108Z,-1.70
2019-01-25T05:50:38.933Z,-1.71
2019-01-25T05:53:13.886Z,-1.71
2019-01-25T05:55:47.201Z,-1.70
2019-01-25T05:58:23.441Z,-1.72
2019-01-25T06:00:57.346Z,-1.74
2019-01-25T06:03:30.602Z,-1.76
2019-01-25T06:06:08.460Z,-1.79
2019-01-25T06:08:44.006Z,-1.80
2019-01-25T06:11:18.728Z,-1.81
2019-01-25T06:13:53.900Z,-1.81
2019-01-25T06:16:26.824Z,-1.82
2019-01-25T06:19:00.583Z,-1.82
2019-01-25T06:21:33.915Z,-1.81
2019-01-25T06:24:06.778Z,-1.82
2019-01-25T06:26:46.455Z,-1.83
2019-01-25T06:29:20.345Z,-1.83
2019-01-25T06:31:53.623Z,-1.84
2019-01-25T06:34:28.216Z,-1.85
2019-01-25T06:37:01.803Z,-1.86
2019-01-25T06:39:35.217Z,-1.90
2019-01-25T06:42:10.664Z,-1.92
2019-01-25T06:44:45.011Z,-1.92
2019-01-25T06:47:18.055Z,-1.92
2019-01-25T06:49:52.668Z,-1.94
2019-01-25T06:52:26.008Z,-1.94
2019-01-25T06:55:04.294Z,-1.93
2019-01-25T06:57:49.389Z,-1.92
2019-01-25T07:00:24.733Z,-1.93
2019-01-25T07:03:02.518Z,-1.94
2019-01-25T07:05:35.423Z,-1.93
2019-01-25T07:08:14.842Z,-1.89
2019-01-25T07:10:48.683Z,-1.88
2019-01-25T07:13:22.560Z,-1.87
2019-01-25T07:15:56.661Z,-1.86
2019-01-25T07:18:29.529Z,-1.87
2019-01-25T07:21:02.486Z,-1.84
2019-01-25T07:23:35.922Z,-1.81
2019-01-25T07:26:08.840Z,-1.77
2019-01-25T07:28:43.613Z,-1.75
2019-01-25T07:31:17.377Z,-1.74
2019-01-25T07:33:52.143Z,-1.72
2019-01-25T07:36:26.481Z,-1.74
2019-01-25T07:38:59.378Z,-1.74
2019-01-25T07:41:31.733Z,-1.72
2019-01-25T07:44:06.851Z,-1.71
2019-01-25T07:46:40.552Z,-1.69
2019-01-25T07:49:13.549Z,-1.67
2019-01-25T07:51:48.636Z,-1.64
2019-01-25T07:54:24.546Z,-1.65
2019-01-25T07:56:57.867Z,-1.60
2019-01-25T07:59:36.686Z,-1.57
2019-01-25T08:02:13.618Z,-1.55
2019-01-25T08:04:47.841Z,-1.53
2019-01-25T08:07:32.877Z,-1.51
2019-01-25T08:10:18.219Z,-1.46
2019-01-25T08:12:55.953Z,-1.43
2019-01-25T08:15:30.253Z,-1.40
2019-01-25T08:18:04.804Z,-1.41
2019-01-25T08:20:37.674Z,-1.41
2019-01-25T08:23:10.709Z,-1.40
2019-01-25T08:25:44.453Z,-1.40
2019-01-25T08:28:17.800Z,-1.34
2019-01-25T08:30:51.148Z,-1.32
2019-01-25T08:33:24.513Z,-1.30
2019-01-25T08:36:00.595Z,-1.25
2019-01-25T08:38:37.081Z,-1.24
2019-01-25T08:41:10.661Z,-1.20
2019-01-25T08:43:44.879Z,-1.10
2019-01-25T08:46:23.437Z,-1.06
2019-01-25T08:48:57.860Z,-1.04
2019-01-25T08:51:32.325Z,-1.06
2019-01-25T08:54:05.767Z,-1.10
2019-01-25T08:56:42.717Z,-1.10
2019-01-25T08:59:17.383Z,-1.07
2019-01-25T09:01:50.864Z,-1.03
2019-01-25T09:04:27.725Z,-1.04
2019-01-25T09:07:02.676Z,-0.99
2019-01-25T09:09:38.703Z,-0.97
2019-01-25T09:12:13.549Z,-0.93
2019-01-25T09:14:49.474Z,-0.85
2019-01-25T09:17:24.356Z,-0.81
2019-01-25T09:20:02.536Z,-0.79
2019-01-25T09:22:35.389Z,-0.84
2019-01-25T09:25:35.787Z,-0.85
2019-01-25T09:28:14.017Z,-0.73
2019-01-25T09:30:48.820Z,-0.62
2019-01-25T09:33:23.486Z,-0.52
2019-01-25T09:35:57.345Z,-0.45
2019-01-25T09:38:36.776Z,-0.41
2019-01-25T09:41:13.138Z,-0.34
2019-01-25T09:43:48.124Z,-0.31
2019-01-25T09:46:25.649Z,-0.26
2019-01-25T09:48:59.530Z,-0.18
2019-01-25T09:51:37.836Z,-0.09
2019-01-25T09:54:12.377Z,-0.02
2019-01-25T09:56:48.453Z,-0.02
2019-01-25T09:59:25.395Z,0.03
2019-01-25T10:01:58.331Z,0.01
2019-01-25T10:04:35.422Z,-0.05
2019-01-25T10:07:12.168Z,-0.14
2019-01-25T10:09:49.799Z,-0.19
2019-01-25T10:12:24.536Z,-0.19
2019-01-25T10:14:59.497Z,-0.18
2019-01-25T10:17:41.683Z,-0.13
2019-01-25T10:20:16.537Z,-0.10
2019-01-25T10:22:53.800Z,-0.15
2019-01-25T10:25:29.517Z,-0.15
2019-01-25T10:28:03.811Z,-0.14
2019-01-25T10:30:36.897Z,-0.11
2019-01-25T10:33:13.540Z,-0.07
2019-01-25T10:35:51.898Z,0.00
2019-01-25T10:38:25.708Z,-0.02
2019-01-25T10:41:05.020Z,-0.05
2019-01-25T10:43:38.072Z,-0.05
2019-01-25T10:46:11.926Z,-0.04
2019-01-25T10:48:46.353Z,-0.01
2019-01-25T10:51:22.772Z,0.03
2019-01-25T10:54:06.474Z,0.03
2019-01-25T10:56:41.956Z,0.09
2019-01-25T10:59:15.144Z,0.18
2019-01-25T11:01:49.932Z,0.22
2019-01-25T11:04:27.165Z,0.27
2019-01-25T11:07:01.317Z,0.35
2019-01-25T11:09:38.139Z,0.39
2019-01-25T11:12:12.724Z,0.47
2019-01-25T11:14:48.775Z,0.54
2019-01-25T11:17:23.832Z,0.56
2019-01-25T11:19:57.679Z,0.62
2019-01-25T11:22:30.877Z,0.67
2019-01-25T11:25:08.904Z,0.74
2019-01-25T11:27:41.758Z,0.79
2019-01-25T11:30:24.512Z,0.84
2019-01-25T11:32:58.332Z,0.86
2019-01-25T11:35:31.481Z,0.85
2019-01-25T11:38:07.488Z,0.82
2019-01-25T11:40:44.140Z,0.78
2019-01-25T11:43:20.014Z,0.79
2019-01-25T11:45:56.834Z,0.81
2019-01-25T11:48:33.481Z,0.88
2019-01-25T11:51:09.893Z,0.98
2019-01-25T11:53:43.409Z,1.10
2019-01-25T11:56:17.484Z,1.19
2019-01-25T11:58:52.995Z,1.18
2019-01-25T12:01:31.700Z,1.10
2019-01-25T12:04:08.274Z,1.09
2019-01-25T12:06:41.172Z,1.14
2019-01-25T12:09:16.444Z,1.17
2019-01-25T12:11:49.425Z,1.31
2019-01-25T12:14:23.406Z,1.38
2019-01-25T12:16:56.422Z,1.52
2019-01-25T12:19:30.760Z,1.52
2019-01-25T12:22:05.730Z,1.54
2019-01-25T12:24:42.083Z,1.62
2019-01-25T12:27:17.447Z,1.67
2019-01-25T12:29:52.172Z,1.77
2019-01-25T12:32:28.208Z,1.79
2019-01-25T12:35:07.348Z,1.77
2019-01-25T12:37:42.995Z,1.80
2019-01-25T12:40:17.765Z,1.91
2019-01-25T12:42:50.685Z,2.09
2019-01-25T12:45:27.027Z,2.23
2019-01-25T12:48:03.229Z,2.35
2019-01-25T12:50:49.135Z,2.47
2019-01-25T12:53:26.747Z,2.50
2019-01-25T12:56:02.384Z,2.48
2019-01-25T12:58:36.372Z,2.58
2019-01-25T13:01:10.302Z,2.72
2019-01-25T13:03:44.204Z,2.74
2019-01-25T13:06:18.230Z,2.85
2019-01-25T13:08:52.558Z,2.85
2019-01-25T13:11:26.393Z,2.80
2019-01-25T13:14:00.466Z,2.66
2019-01-25T13:16:35.989Z,2.67
2019-01-25T13:19:11.819Z,2.56
2019-01-25T13:21:48.916Z,2.51
2019-01-25T13:24:23.558Z,2.51
2019-01-25T13:27:00.411Z,2.44
2019-01-25T13:29:34.266Z,2.50
2019-01-25T13:32:14.445Z,2.58
2019-01-25T13:34:51.539Z,2.58
2019-01-25T13:37:31.315Z,2.51
2019-01-25T13:40:12.436Z,2.48
2019-01-25T13:42:59.595Z,2.51
2019-01-25T13:45:33.737Z,2.54
2019-01-25T13:48:06.942Z,2.50
2019-01-25T13:50:41.517Z,2.50
2019-01-25T13:53:24.778Z,2.55
2019-01-25T13:55:59.999Z,2.60
2019-01-25T13:58:36.876Z,2.59
2019-01-25T14:01:10.936Z,2.62
2019-01-25T14:03:46.690Z,2.70
2019-01-25T14:06:22.809Z,2.75
2019-01-25T14:08:59.023Z,2.79
2019-01-25T14:11:34.801Z,2.88
2019-01-25T14:14:08.541Z,2.87
2019-01-25T14:16:41.616Z,2.81
2019-01-25T14:19:16.526Z,2.80
2019-01-25T14:21:55.255Z,2.83
2019-01-25T14:24:29.218Z,2.84
2019-01-25T14:27:03.968Z,2.80
2019-01-25T14:29:39.069Z,2.79
2019-01-25T14:32:13.616Z,2.79
2019-01-25T14:34:48.853Z,2.78
2019-01-25T14:37:23.570Z,2.74
2019-01-25T14:39:57.187Z,2.67
2019-01-25T14:42:31.360Z,2.60
2019-01-25T14:45:10.545Z,2.57
2019-01-25T14:47:46.126Z,2.58
2019-01-25T14:50:21.832Z,2.62
2019-01-25T14:53:00.725Z,2.59
2019-01-25T14:55:37.526Z,2.54
2019-01-25T14:58:13.398Z,2.53
2019-01-25T15:00:54.731Z,2.52
2019-01-25T15:03:41.083Z,2.52
2019-01-25T15:06:22.852Z,2.55
2019-01-25T15:09:12.793Z,2.57
2019-01-25T15:11:54.246Z,2.57
2019-01-25T15:14:35.766Z,2.58
2019-01-25T15:17:14.091Z,2.57
2019-01-25T15:20:02.947Z,2.56
2019-01-25T15:22:50.209Z,2.55
2019-01-25T15:25:30.540Z,2.56
2019-01-25T15:28:10.298Z,2.54
2019-01-25T15:30:56.471Z,2.52
2019-01-25T15:33:45.988Z,2.50
2019-01-25T15:36:31.530Z,2.47
2019-01-25T15:39:14.860Z,2.45
2019-01-25T15:41:57.346Z,2.43
2019-01-25T15:44:41.854Z,2.42
2019-01-25T15:47:20.163Z,2.43
2019-01-25T15:50:05.886Z,2.42
2019-01-25T15:52:41.129Z,2.41
2019-01-25T15:55:15.452Z,2.42
2019-01-25T15:57:58.506Z,2.41
2019-01-25T16:00:32.769Z,2.41
2019-01-25T16:03:08.783Z,2.39
2019-01-25T16:05:43.673Z,2.37
2019-01-25T16:08:21.807Z,2.34
2019-01-25T16:11:00.809Z,2.29
2019-01-25T16:13:43.121Z,2.25
2019-01-25T16:16:20.396Z,2.22
2019-01-25T16:19:07.853Z,2.16
2019-01-25T16:21:42.603Z,2.11
2019-01-25T16:24:15.636Z,2.05
2019-01-25T16:26:49.611Z,1.98
2019-01-25T16:29:24.708Z,1.95
2019-01-25T16:32:01.956Z,1.91
2019-01-25T16:34:38.235Z,1.86
2019-01-25T16:37:14.398Z,1.81
2019-01-25T16:39:50.052Z,1.75
2019-01-25T16:42:24.777Z,1.70
2019-01-25T16:44:58.014Z,1.66
2019-01-25T16:47:31.465Z,1.61
2019-01-25T16:50:08.302Z,1.57
2019-01-25T16:52:48.349Z,1.57
2019-01-25T16:55:22.062Z,1.54
2019-01-25T16:57:58.641Z,1.48
2019-01-25T17:00:40.403Z,1.41
2019-01-25T17:03:22.612Z,1.35
2019-01-25T17:05:56.381Z,1.31
2019-01-25T17:08:33.377Z,1.30
2019-01-25T17:11:06.731Z,1.27
2019-01-25T17:13:44.437Z,1.28
2019-01-25T17:16:19.642Z,1.27
2019-01-25T17:18:55.624Z,1.27
2019-01-25T17:21:29.682Z,1.28
2019-01-25T17:24:06.647Z,1.29
2019-01-25T17:26:42.031Z,1.30
2019-01-25T17:29:17.341Z,1.32
2019-01-25T17:31:54.680Z,1.34
2019-01-25T17:34:32.244Z,1.35
2019-01-25T17:37:06.043Z,1.36
2019-01-25T17:39:57.717Z,1.38
2019-01-25T17:42:32.392Z,1.39
2019-01-25T17:45:09.103Z,1.38
2019-01-25T17:47:47.468Z,1.42
2019-01-25T17:50:20.659Z,1.42
2019-01-25T17:52:55.617Z,1.45
2019-01-25T17:55:36.522Z,1.46
2019-01-25T17:58:16.445Z,1.47
2019-01-25T18:00:57.601Z,1.51
2019-01-25T18:03:32.528Z,1.52
2019-01-25T18:06:05.924Z,1.54
2019-01-25T18:08:38.923Z,1.56
2019-01-25T18:11:12.632Z,1.59
2019-01-25T18:13:45.702Z,1.60
2019-01-25T18:16:24.900Z,1.62
2019-01-25T18:18:58.739Z,1.62
2019-01-25T18:21:34.835Z,1.60
2019-01-25T18:24:12.300Z,1.55
2019-01-25T18:26:46.382Z,1.51
2019-01-25T18:29:40.232Z,1.52
2019-01-25T18:32:14.040Z,1.55
2019-01-25T18:34:49.808Z,1.56
2019-01-25T18:37:25.309Z,1.57
2019-01-25T18:39:59.374Z,1.58
2019-01-25T18:42:34.236Z,1.60
2019-01-25T18:45:14.462Z,1.61
2019-01-25T18:47:48.663Z,1.62
2019-01-25T18:50:25.794Z,1.62
2019-01-25T18:53:02.106Z,1.64
2019-01-25T18:55:36.200Z,1.62
2019-01-25T18:58:10.536Z,1.62
2019-01-25T19:00:46.653Z,1.62
2019-01-25T19:03:21.945Z,1.60
2019-01-25T19:05:58.874Z,1.59
2019-01-25T19:08:35.162Z,1.59
2019-01-25T19:11:12.612Z,1.60
2019-01-25T19:13:51.216Z,1.59
2019-01-25T19:16:29.453Z,1.59
2019-01-25T19:19:04.708Z,1.60
2019-01-25T19:21:39.189Z,1.62
2019-01-25T19:24:14.613Z,1.62
2019-01-25T19:26:50.050Z,1.61
2019-01-25T19:29:27.836Z,1.63
2019-01-25T19:32:03.862Z,1.63
2019-01-25T19:34:45.141Z,1.63
2019-01-25T19:37:35.221Z,1.64
2019-01-25T19:40:17.303Z,1.64
2019-01-25T19:42:55.888Z,1.65
2019-01-25T19:45:36.577Z,1.66
2019-01-25T19:48:12.647Z,1.67
2019-01-25T19:50:48.596Z,1.66
2019-01-25T19:53:33.487Z,1.66
2019-01-25T19:56:10.025Z,1.65
2019-01-25T19:58:50.365Z,1.66
2019-01-25T20:01:29.405Z,1.67
2019-01-25T20:04:02.988Z,1.69
2019-01-25T20:06:37.663Z,1.69
2019-01-25T20:09:12.650Z,1.70
2019-01-25T20:11:51.710Z,1.70
2019-01-25T20:14:33.544Z,1.71
2019-01-25T20:17:09.097Z,1.72
2019-01-25T20:19:46.773Z,1.73
2019-01-25T20:22:21.880Z,1.75
2019-01-25T20:24:57.456Z,1.77
2019-01-25T20:27:34.744Z,1.79
2019-01-25T20:30:20.230Z,1.79
2019-01-25T20:32:57.417Z,1.81
2019-01-25T20:35:40.246Z,1.82
2019-01-25T20:38:16.576Z,1.84
2019-01-25T20:40:50.688Z,1.86
2019-01-25T20:43:29.436Z,1.87
2019-01-25T20:46:02.555Z,1.88
2019-01-25T20:48:37.417Z,1.88
2019-01-25T20:51:17.902Z,1.91
2019-01-25T20:53:52.035Z,1.91
2019-01-25T20:56:26.314Z,1.93
2019-01-25T20:59:02.031Z,1.94
2019-01-25T21:01:35.116Z,1.95
2019-01-25T21:04:09.464Z,1.97
2019-01-25T21:06:42.568Z,1.96
2019-01-25T21:09:17.630Z,1.98
2019-01-25T21:11:54.707Z,1.99
2019-01-25T21:14:27.874Z,2.01
2019-01-25T21:17:04.411Z,2.04
2019-01-25T21:19:38.798Z,2.07
2019-01-25T21:22:11.998Z,2.07
2019-01-25T21:24:45.301Z,2.08
2019-01-25T21:27:22.297Z,2.11
2019-01-25T21:29:56.286Z,2.14
2019-01-25T21:32:30.545Z,2.16
2019-01-25T21:35:06.105Z,2.18
2019-01-25T21:37:41.738Z,2.20
2019-01-25T21:40:19.120Z,2.22
2019-01-25T21:42:53.724Z,2.23
2019-01-25T21:45:30.212Z,2.24
2019-01-25T21:48:09.421Z,2.26
2019-01-25T21:50:45.402Z,2.28
2019-01-25T21:53:19.224Z,2.30
2019-01-25T21:55:53.092Z,2.34
2019-01-25T21:58:26.135Z,2.36
2019-01-25T22:01:10.202Z,2.40
2019-01-25T22:03:46.334Z,2.41
2019-01-25T22:06:19.312Z,2.41
2019-01-25T22:08:54.028Z,2.46
2019-01-25T22:11:31.105Z,2.46
2019-01-25T22:14:06.144Z,2.47
2019-01-25T22:16:45.165Z,2.49
2019-01-25T22:19:20.523Z,2.52
2019-01-25T22:21:55.605Z,2.53
2019-01-25T22:24:29.335Z,2.52
2019-01-25T22:27:04.650Z,2.53
2019-01-25T22:29:41.956Z,2.57
2019-01-25T22:32:17.388Z,2.61
2019-01-25T22:34:54.333Z,2.65
2019-01-25T22:37:28.404Z,2.67
2019-01-25T22:40:02.860Z,2.69
2019-01-25T22:42:37.589Z,2.70
2019-01-25T22:45:15.769Z,2.74
2019-01-25T22:47:51.519Z,2.76
2019-01-25T22:50:29.374Z,2.81
2019-01-25T22:53:08.294Z,2.85
2019-01-25T22:55:42.030Z,2.87
2019-01-25T22:58:16.210Z,2.89
2019-01-25T23:01:11.833Z,2.91
2019-01-25T23:04:37.005Z,2.93
2019-01-25T23:07:28.041Z,2.95
2019-01-25T23:10:15.813Z,2.98
2019-01-25T23:12:49.189Z,3.00
2019-01-25T23:15:23.576Z,3.02
2019-01-25T23:17:58.156Z,3.03
2019-01-25T23:20:31.056Z,3.03
2019-01-25T23:23:05.538Z,3.04
2019-01-25T23:25:39.728Z,3.09
2019-01-25T23:28:13.329Z,3.10
2019-01-25T23:30:46.870Z,3.11
2019-01-25T23:33:20.733Z,3.15
2019-01-25T23:35:56.584Z,3.18
2019-01-25T23:38:29.563Z,3.19
2019-01-25T23:41:02.479Z,3.21
2019-01-25T23:43:37.788Z,3.24
2019-01-25T23:46:13.865Z,3.25
2019-01-25T23:48:48.485Z,3.26
2019-01-25T23:51:23.785Z,3.31
2019-01-25T23:53:57.857Z,3.36
2019-01-25T23:56:32.375Z,3.38
2019-01-25T23:59:06.630Z,3.41
